Hovedside
METAR-TAF:

METAR-TAF

Lufthavner :

Diori Hamani internasjonale lufthavn

Niamey, Niger

breddegrad: 13-29N, lengdegrad: 002-10E, høyde over havet: 223 m

Gjeldene værobservasjon

Denne rapporten ble laget for 49 minutter siden, klokken 04:00 UTC
Flau vind
Temperatur 25°C
Luftfuktighet 54%
Trykk 1009 hPa
Sikt: 8000 m

METAR: DRRN 220400Z 00000KT 8000 NSC 25/15 Q1009 NOSIG

Tid: 05:49 (04:49 UTC)

Varsel

Denne rapporten ble laget for 5 timer og 49 minutter siden, klokken 23:00 UTC
Varsel gyldig fra 22. klokken 00 UTC til 23. klokken 06 UTC
Vind 8 kt fra Øst-sørøst
Sikt 10 km eller mer
ingen skyer under 1500 m og ingen bygeskyer
Sannsynlighet 40%
fra 22. klokken 06 UTC til 22. klokken 10 UTC
Sikt: 4000 m
mye støv

TAF: DRRN 212300Z 2200/2306 12008KT CAVOK PROB40 2206/2210 4000 DU

Værobservasjoner og værvarsel for over 4000 flyplasser (METAR- og TAF-rapporter).

Tilgjengelige stasjoner er representert av de røde og gule prikkene på kartet.

Hold musepekeren over prikken for å se navnet på stasjonen.

Klikk så for å se værobservasjoner og -varsler.

For å forandre kartet kan du klikke på den grønne knappen med svart kryss for å zoome inn, på den grønne knappen med strek for å zoome ut, eller på de grønne pilene for å se tilstøtende kart.


METAR-TAF: